หน้าหลัก
METAR-TAF:

METAR-TAF

ท่าอากาศยาน :

Notodden, นอร์เวย์

ละติจูด: 59-34N, ลองจิจูด: 009-13E, ความสูง: 19 ม.

การสังเกตสภาพอากาศปัจจุบัน

รายงานได้ทำขึ้นเมื่อ 11 ชั่วโมงและ 15 นาทีที่แล้ว ณ เวลา 13:50 UTC
ลม 8 นอตจากตะวันออก/ตะวันออกเฉียงใต้
อุณหภูมิ 26°C
ความชื้น 39%
ความกดอากาศ 1017 hPa
ทัศนวิสัย 10 กม. หรือมากกว่า
ไม่มีเมฆต่ำกว่า 1,500 ม. และไม่มีเมฆคิวมูโลนิมบัส

METAR: ENNO 191350Z 12008KT CAVOK 26/11 Q1017

เวลา: 03:05 (01:05 UTC)

การพยากรณ์

รายงานได้ทำขึ้นเมื่อ 17 ชั่วโมงและ 5 นาทีที่แล้ว ณ เวลา 08:00 UTC
การพยากรณ์มีผลตั้งแต่วันที่ 19 ณ เวลา 09 UTC จนถึงวันที่ 19 ณ เวลา 14 UTC
ลม 3 นอตจากทิศทางซึ่งแปรผันได้
ทัศนวิสัย 10 กม. หรือมากกว่า
ไม่มีเมฆต่ำกว่า 1,500 ม. และไม่มีเมฆคิวมูโลนิมบัส

TAF: ENNO 190800Z 1909/1914 VRB03KT CAVOK

สังเกตการณ์สภาพอากาศและพยากรณ์อากาศของสนามบินมากกว่า 4000 แห่ง (รายงาน METAR และ TAF).

สถานีที่ดูได้จะแสดงไว้ด้วยจุดสีเหลืองและสีแดงบนแผนที่.

เลื่อนเมาส์ไปเหนือจุดเพื่อดูชื่อสถานี.

แล้วคลิกเพื่อดูสังเกตการณ์และการพยากรณ์สภาพอากาศ.

ในการเปลี่ยนแผนที่: คลิกที่ปุ่มสีเขียวที่มีกากบาทสีดำเพื่อซูมเข้า; ที่ปุ่มสีเขียวที่มีขีดเพื่อซูมออก; หรือที่ลูกศรสีเขียวเพื่อไปยังแผนที่ที่อยู่ติดกัน.


METAR-TAF: